Time;durP1;ratioP1;P1;durP2;ratioP2;P2;SDS_P1;SDS_P2;PMS_P1;PMS_P2;Temp;Humidity;BMP_temperature;BMP_pressure;BME280_temperature;BME280_humidity;BME280_pressure;Samples;Min_cycle;Max_cycle;Signal;HPM_P1;HPM_P2
2021/03/21 00:00:40;;;;;;;6.85;2.80;;;18.10;52.40;;;;;;5075371;28;20047;-66
2021/03/21 00:03:07;;;;;;;6.38;2.80;;;18.10;52.40;;;;;;5073732;28;20033;-66
2021/03/21 00:05:34;;;;;;;4.78;2.50;;;18.10;52.50;;;;;;5073964;28;20025;-66
2021/03/21 00:08:16;;;;;;;5.03;2.30;;;18.10;52.40;;;;;;5073773;28;20016;-66
2021/03/21 00:10:45;;;;;;;6.88;2.40;;;18.10;52.40;;;;;;5075307;28;20016;-66
2021/03/21 00:13:11;;;;;;;5.57;1.98;;;18.00;52.40;;;;;;5074976;28;20021;-65
2021/03/21 00:15:37;;;;;;;4.78;2.03;;;18.00;52.40;;;;;;5074939;28;20122;-65
2021/03/21 00:18:03;;;;;;;5.78;2.20;;;18.00;52.50;;;;;;5074942;28;20028;-66
2021/03/21 00:20:34;;;;;;;5.30;2.10;;;18.00;52.50;;;;;;5074965;28;20112;-66
2021/03/21 00:23:00;;;;;;;5.50;1.90;;;18.00;52.50;;;;;;5074830;28;20059;-66
2021/03/21 00:25:29;;;;;;;4.18;1.83;;;18.00;52.40;;;;;;5074855;28;20021;-65
2021/03/21 00:27:56;;;;;;;4.38;1.88;;;18.00;52.30;;;;;;5074741;28;20024;-66
2021/03/21 00:30:28;;;;;;;5.50;1.85;;;17.90;52.40;;;;;;5074626;28;20021;-65
2021/03/21 00:32:55;;;;;;;4.40;1.80;;;17.90;52.40;;;;;;5073118;28;20020;-66
2021/03/21 00:35:21;;;;;;;4.03;1.63;;;17.90;52.60;;;;;;5074786;28;20521;-66
2021/03/21 00:37:47;;;;;;;4.40;1.80;;;17.90;52.40;;;;;;5073264;28;20107;-66
2021/03/21 00:40:17;;;;;;;4.07;1.65;;;17.90;52.40;;;;;;5074537;28;20475;-66
2021/03/21 00:42:42;;;;;;;6.13;1.60;;;17.90;52.40;;;;;;5073128;28;20044;-67
2021/03/21 00:45:11;;;;;;;3.97;1.60;;;17.90;52.40;;;;;;5073061;28;20028;-65
2021/03/21 00:47:37;;;;;;;5.13;1.77;;;17.90;52.40;;;;;;5073896;28;20071;-66
2021/03/21 00:50:06;;;;;;;4.13;1.75;;;17.80;52.40;;;;;;5054309;28;20040;-66
2021/03/21 00:52:32;;;;;;;3.80;1.60;;;17.80;52.80;;;;;;5068319;28;20027;-66
2021/03/21 00:54:58;;;;;;;5.00;1.52;;;17.80;52.30;;;;;;5073859;28;20040;-66
2021/03/21 00:57:24;;;;;;;4.85;1.55;;;17.80;52.30;;;;;;5074155;28;20036;-66
2021/03/21 00:59:49;;;;;;;4.43;1.60;;;17.80;52.40;;;;;;5072728;28;20590;-66
2021/03/21 01:02:15;;;;;;;3.58;1.58;;;17.80;52.00;;;;;;5073625;28;20050;-66
2021/03/21 01:04:41;;;;;;;3.90;1.45;;;17.70;52.40;;;;;;5073331;28;20483;-65
2021/03/21 01:07:07;;;;;;;4.13;1.40;;;17.70;52.40;;;;;;5072244;28;20109;-66
2021/03/21 01:09:33;;;;;;;5.25;1.70;;;17.70;52.40;;;;;;5073920;28;20089;-67
2021/03/21 01:11:59;;;;;;;2.63;1.38;;;17.70;52.40;;;;;;5073888;28;20099;-66
2021/03/21 01:14:25;;;;;;;5.28;1.60;;;17.70;52.50;;;;;;5073416;28;20032;-66
2021/03/21 01:16:52;;;;;;;2.85;1.30;;;17.70;52.50;;;;;;5073106;28;20173;-66
2021/03/21 01:19:20;;;;;;;3.00;1.23;;;17.60;52.50;;;;;;5072223;28;20055;-66
2021/03/21 01:21:47;;;;;;;4.18;1.58;;;17.60;52.50;;;;;;5073307;28;20028;-66
2021/03/21 01:24:16;;;;;;;4.03;1.30;;;17.60;52.40;;;;;;5073180;28;20024;-66
2021/03/21 01:26:42;;;;;;;2.58;1.00;;;17.60;52.50;;;;;;5073135;28;20025;-67
2021/03/21 01:29:08;;;;;;;3.00;1.20;;;17.60;52.50;;;;;;5065395;28;20553;-66
2021/03/21 01:31:35;;;;;;;2.13;1.08;;;17.60;52.60;;;;;;5072444;28;20033;-66
2021/03/21 01:34:01;;;;;;;4.55;1.70;;;17.60;52.60;;;;;;5071390;28;20117;-66
2021/03/21 01:36:33;;;;;;;4.00;1.27;;;17.50;52.60;;;;;;5073055;28;20037;-67
2021/03/21 01:39:06;;;;;;;3.75;1.42;;;17.60;52.60;;;;;;5073552;28;20472;-67
2021/03/21 01:41:35;;;;;;;3.03;1.30;;;17.60;52.60;;;;;;5072967;28;20062;-66
2021/03/21 01:44:04;;;;;;;3.33;1.10;;;17.50;52.60;;;;;;5072490;28;20029;-66
2021/03/21 01:46:35;;;;;;;2.60;1.13;;;17.50;52.60;;;;;;5072842;28;20032;-66
2021/03/21 01:49:13;;;;;;;2.50;1.20;;;17.50;52.90;;;;;;5072994;28;20040;-66
2021/03/21 01:51:40;;;;;;;2.08;1.00;;;17.50;52.60;;;;;;5072753;28;20109;-67
2021/03/21 01:54:12;;;;;;;2.55;1.20;;;17.40;52.60;;;;;;5072362;28;20036;-66
2021/03/21 01:56:39;;;;;;;2.42;1.20;;;17.40;52.60;;;;;;5071820;28;20111;-66
2021/03/21 01:59:10;;;;;;;2.47;1.10;;;17.50;52.60;;;;;;5071680;28;20491;-66
2021/03/21 02:01:36;;;;;;;1.95;1.05;;;17.40;52.50;;;;;;5073155;28;20067;-66
2021/03/21 02:04:03;;;;;;;3.42;1.13;;;17.40;52.40;;;;;;5072787;28;20024;-66
2021/03/21 02:06:35;;;;;;;2.58;1.15;;;17.40;52.40;;;;;;5072868;28;20035;-66
2021/03/21 02:09:04;;;;;;;;;;;17.40;52.50;;;;;;5073488;28;20025;-66
2021/03/21 02:11:58;;;;;;;1.85;1.00;;;17.40;52.50;;;;;;5073056;28;19957;-66
2021/03/21 02:14:48;;;;;;;3.28;1.10;;;17.40;52.60;;;;;;5072739;28;20038;-66
2021/03/21 02:17:20;;;;;;;;;;;17.30;52.50;;;;;;5073193;28;20376;-67
2021/03/21 02:20:11;;;;;;;1.85;1.05;;;17.30;52.50;;;;;;5071479;28;20337;-66
2021/03/21 02:22:47;;;;;;;2.85;1.10;;;17.30;52.50;;;;;;5072894;28;20491;-66
2021/03/21 02:25:28;;;;;;;3.58;0.98;;;17.30;52.60;;;;;;5072554;28;20063;-66
2021/03/21 02:28:23;;;;;;;2.28;1.00;;;17.30;52.60;;;;;;5072706;28;20487;-66
2021/03/21 02:30:52;;;;;;;2.67;0.95;;;17.20;52.50;;;;;;5072528;28;20028;-66
2021/03/21 02:33:31;;;;;;;3.65;1.02;;;17.20;52.60;;;;;;5072553;28;20035;-66
2021/03/21 02:36:10;;;;;;;3.92;1.13;;;17.20;52.60;;;;;;5072640;28;20035;-66
2021/03/21 02:38:54;;;;;;;2.10;0.90;;;17.20;52.70;;;;;;5072642;28;20028;-65
2021/03/21 02:44:51;;;;;;;1.60;0.90;;;17.10;52.90;;;;;;5072419;28;20533;-65
2021/03/21 02:47:24;;;;;;;1.65;1.00;;;17.00;52.90;;;;;;5072408;28;20109;-65
2021/03/21 02:49:54;;;;;;;2.83;0.80;;;17.00;52.90;;;;;;5070996;28;20043;-65
2021/03/21 02:52:29;;;;;;;3.13;1.00;;;17.00;52.90;;;;;;5072309;28;20033;-66
2021/03/21 02:55:04;;;;;;;4.07;1.10;;;17.00;52.90;;;;;;5072631;28;20020;-66
2021/03/21 02:57:42;;;;;;;1.98;0.90;;;16.90;53.00;;;;;;5070983;28;20017;-65
2021/03/21 03:00:10;;;;;;;2.03;0.95;;;16.90;53.00;;;;;;5072635;28;20032;-66
2021/03/21 03:02:45;;;;;;;2.28;1.10;;;16.90;53.00;;;;;;5072093;28;20052;-66
2021/03/21 03:05:22;;;;;;;1.55;0.80;;;16.90;53.00;;;;;;5070847;28;20074;-67
2021/03/21 03:08:02;;;;;;;1.80;0.90;;;16.90;53.20;;;;;;5072621;28;20025;-66
2021/03/21 03:10:33;;;;;;;1.83;0.88;;;16.80;53.10;;;;;;5076195;28;20077;-66
2021/03/21 03:13:05;;;;;;;1.63;0.80;;;16.80;53.10;;;;;;5076511;28;20208;-66
2021/03/21 03:15:31;;;;;;;2.55;0.80;;;16.80;53.10;;;;;;5076169;28;20025;-66
2021/03/21 03:18:10;;;;;;;2.47;0.90;;;16.80;53.10;;;;;;5076652;28;20036;-65
2021/03/21 03:20:43;;;;;;;1.35;0.77;;;16.80;53.10;;;;;;5075868;28;20476;-66
2021/03/21 03:23:33;;;;;;;3.00;0.90;;;16.70;53.00;;;;;;5075989;28;20028;-66
2021/03/21 03:26:17;;;;;;;1.42;0.90;;;16.70;53.00;;;;;;5076043;28;20105;-65
2021/03/21 03:28:52;;;;;;;2.15;1.05;;;16.70;53.00;;;;;;5074530;28;20021;-66
2021/03/21 03:31:26;;;;;;;1.95;0.90;;;16.70;53.00;;;;;;5076022;28;20032;-66
2021/03/21 03:33:53;;;;;;;0.80;0.70;;;16.70;53.00;;;;;;5075945;28;20115;-66
2021/03/21 03:36:20;;;;;;;1.67;0.88;;;16.70;53.00;;;;;;5074299;28;20025;-66
2021/03/21 03:38:48;;;;;;;1.15;0.70;;;16.60;52.90;;;;;;5075576;28;20498;-65
2021/03/21 03:41:35;;;;;;;1.45;0.90;;;16.60;52.90;;;;;;5075505;28;20025;-66
2021/03/21 03:44:14;;;;;;;1.05;0.80;;;16.60;52.90;;;;;;5075346;28;20040;-66
2021/03/21 03:46:48;;;;;;;1.38;0.73;;;16.60;52.90;;;;;;5075289;28;20107;-66
2021/03/21 03:49:33;;;;;;;2.10;0.98;;;16.60;52.90;;;;;;5075424;28;20025;-66
2021/03/21 03:52:18;;;;;;;1.70;0.70;;;16.60;52.80;;;;;;5075454;28;20074;-66
2021/03/21 03:54:50;;;;;;;2.05;0.80;;;16.60;53.50;;;;;;5075627;28;20021;-66
2021/03/21 03:57:25;;;;;;;1.17;0.80;;;16.60;53.50;;;;;;5075329;28;20029;-66
2021/03/21 04:00:16;;;;;;;3.17;0.90;;;16.50;52.90;;;;;;5075516;28;20052;-67
2021/03/21 04:03:07;;;;;;;2.78;0.75;;;16.50;52.90;;;;;;5066603;28;20060;-66
2021/03/21 04:05:56;;;;;;;1.20;0.70;;;16.50;52.90;;;;;;5075291;28;20124;-66
2021/03/21 04:08:36;;;;;;;1.40;0.80;;;16.50;52.90;;;;;;5075227;28;20037;-66
2021/03/21 04:11:31;;;;;;;1.87;0.80;;;16.50;52.90;;;;;;5073790;28;20031;-66
2021/03/21 04:14:11;;;;;;;2.05;0.88;;;16.50;52.90;;;;;;5074921;28;20756;-66
2021/03/21 04:16:50;;;;;;;1.70;0.93;;;16.40;52.70;;;;;;5075094;28;20021;-65
2021/03/21 04:19:21;;;;;;;1.75;0.80;;;16.40;52.70;;;;;;5074540;28;20032;-66
2021/03/21 04:21:58;;;;;;;0.90;0.67;;;16.40;52.70;;;;;;5074416;28;20028;-66
2021/03/21 04:24:39;;;;;;;0.70;0.60;;;16.40;52.70;;;;;;5074927;28;20558;-66
2021/03/21 04:27:11;;;;;;;2.58;0.88;;;16.40;52.70;;;;;;5074921;28;20021;-65
2021/03/21 04:29:42;;;;;;;1.75;0.90;;;16.40;52.70;;;;;;5075174;28;20016;-65
2021/03/21 04:32:13;;;;;;;1.08;0.60;;;16.30;52.70;;;;;;5074905;28;20028;-66
2021/03/21 04:34:42;;;;;;;1.50;0.67;;;16.30;52.80;;;;;;5074589;28;20030;-66
2021/03/21 04:37:09;;;;;;;0.70;0.60;;;16.30;52.80;;;;;;5074882;28;20266;-66
2021/03/21 04:39:37;;;;;;;1.75;0.70;;;16.30;52.80;;;;;;5074666;28;20094;-66
2021/03/21 04:42:30;;;;;;;2.20;1.00;;;16.30;52.80;;;;;;5074435;28;20108;-66
2021/03/21 04:45:10;;;;;;;2.53;0.80;;;16.30;52.80;;;;;;5074519;28;20418;-65
2021/03/21 04:47:39;;;;;;;2.15;0.98;;;16.30;52.80;;;;;;5074561;28;20034;-66
2021/03/21 04:50:06;;;;;;;1.20;0.90;;;16.30;52.80;;;;;;5074505;28;20074;-66
2021/03/21 04:52:52;;;;;;;2.53;1.00;;;16.20;52.70;;;;;;5074200;28;20130;-66
2021/03/21 04:55:24;;;;;;;1.65;0.70;;;16.20;52.80;;;;;;5072879;28;20439;-66
2021/03/21 04:57:50;;;;;;;;;;;16.20;52.80;;;;;;5074775;28;20059;-66
2021/03/21 05:00:37;;;;;;;1.98;0.82;;;16.20;52.80;;;;;;5074360;28;19904;-66
2021/03/21 05:03:12;;;;;;;0.95;0.80;;;16.20;52.90;;;;;;5073655;28;20064;-66
2021/03/21 05:05:45;;;;;;;1.77;0.90;;;16.20;52.90;;;;;;5074314;28;20024;-65
2021/03/21 05:08:16;;;;;;;2.92;1.20;;;16.20;52.90;;;;;;5072716;28;20111;-66
2021/03/21 05:10:46;;;;;;;;;;;16.20;52.90;;;;;;5074341;28;20027;-66
2021/03/21 05:13:34;;;;;;;2.33;0.77;;;16.10;52.80;;;;;;5073788;28;19943;-65
2021/03/21 05:16:03;;;;;;;1.75;0.68;;;16.20;52.90;;;;;;5071666;28;20346;-66
2021/03/21 05:18:52;;;;;;;2.40;0.73;;;16.10;52.90;;;;;;5072527;28;20047;-65
2021/03/21 05:21:33;;;;;;;1.88;0.70;;;16.10;52.80;;;;;;5074021;28;20517;-67
2021/03/21 05:24:07;;;;;;;3.60;0.80;;;16.10;52.90;;;;;;5073514;28;20078;-66
2021/03/21 05:26:35;;;;;;;3.60;0.70;;;16.10;52.90;;;;;;5073582;28;20316;-66
2021/03/21 05:29:36;;;;;;;0.90;0.70;;;16.10;52.90;;;;;;5073288;28;20020;-66
2021/03/21 05:32:01;;;;;;;;;;;16.10;52.90;;;;;;5073958;28;20043;-66
2021/03/21 05:34:27;;;;;;;2.05;0.77;;;16.00;52.90;;;;;;5073209;28;19905;-66
2021/03/21 05:37:18;;;;;;;1.85;0.70;;;16.00;52.90;;;;;;5073313;28;20028;-66
2021/03/21 05:39:52;;;;;;;;;;;16.00;52.90;;;;;;5073256;28;20364;-67
2021/03/21 05:42:39;;;;;;;1.35;0.60;;;16.00;52.80;;;;;;5073577;28;20374;-66
2021/03/21 05:45:23;;;;;;;1.65;0.70;;;16.10;52.90;;;;;;5073343;28;20029;-66
2021/03/21 05:48:16;;;;;;;1.95;0.60;;;16.00;53.00;;;;;;5072856;28;20036;-66
2021/03/21 05:51:18;;;;;;;0.98;0.60;;;16.00;52.90;;;;;;5053169;28;20111;-66
2021/03/21 05:54:03;;;;;;;1.13;0.60;;;16.00;52.90;;;;;;5072509;28;20024;-66
2021/03/21 05:56:58;;;;;;;4.97;0.80;;;16.00;52.80;;;;;;5072313;28;20127;-66
2021/03/21 05:59:45;;;;;;;0.90;0.65;;;16.00;52.80;;;;;;5031261;28;20052;-66
2021/03/21 06:02:37;;;;;;;1.55;0.77;;;16.00;52.90;;;;;;5056810;28;20052;-65
2021/03/21 06:05:36;;;;;;;0.98;0.57;;;16.00;52.90;;;;;;5072848;28;20048;-65
2021/03/21 06:08:32;;;;;;;2.30;0.80;;;16.00;52.90;;;;;;5073190;28;20031;-66
2021/03/21 06:11:19;;;;;;;2.97;0.80;;;15.90;52.90;;;;;;5073153;28;20017;-66
2021/03/21 06:13:48;;;;;;;1.30;0.75;;;16.00;53.00;;;;;;5072040;28;20080;-66
2021/03/21 06:16:36;;;;;;;1.42;0.68;;;16.00;53.10;;;;;;5072122;28;20108;-66
2021/03/21 06:19:28;;;;;;;4.15;0.88;;;15.90;53.10;;;;;;5073059;28;20020;-66
2021/03/21 06:22:12;;;;;;;1.80;0.65;;;16.00;53.00;;;;;;5056326;28;20030;-66
2021/03/21 06:24:56;;;;;;;3.65;0.73;;;15.90;53.10;;;;;;5071011;28;20029;-67
2021/03/21 06:27:59;;;;;;;2.17;0.68;;;15.90;53.00;;;;;;5072603;28;20384;-66
2021/03/21 06:30:46;;;;;;;2.25;0.73;;;16.00;52.80;;;;;;5072831;28;20033;-66
2021/03/21 06:33:25;;;;;;;2.13;0.77;;;16.00;52.70;;;;;;5072557;28;20384;-66
2021/03/21 06:36:48;;;;;;;2.55;1.20;;;16.00;52.60;;;;;;5071931;28;20025;-66
2021/03/21 06:39:32;;;;;;;1.73;0.70;;;16.00;52.60;;;;;;5010746;28;20030;-65
2021/03/21 06:42:20;;;;;;;1.48;0.73;;;16.00;52.60;;;;;;5016991;28;20369;-66
2021/03/21 06:45:06;;;;;;;1.65;0.80;;;16.00;52.50;;;;;;5073999;28;20032;-66
2021/03/21 06:47:46;;;;;;;3.03;0.88;;;16.00;52.50;;;;;;5094350;28;20020;-66
2021/03/21 06:50:27;;;;;;;2.05;0.80;;;16.00;52.40;;;;;;5087977;28;20020;-66
2021/03/21 06:53:23;;;;;;;1.58;0.70;;;15.90;52.40;;;;;;5057064;28;20029;-66
2021/03/21 06:55:56;;;;;;;2.30;0.70;;;15.90;52.40;;;;;;5070189;28;20463;-66
2021/03/21 06:58:40;;;;;;;2.25;0.70;;;15.90;52.30;;;;;;5076793;28;20029;-66
2021/03/21 07:01:28;;;;;;;1.70;0.80;;;15.90;52.30;;;;;;5076163;28;20428;-66
2021/03/21 07:04:25;;;;;;;2.83;0.70;;;15.90;52.30;;;;;;5074612;28;20361;-66
2021/03/21 07:07:32;;;;;;;4.53;1.13;;;15.90;52.30;;;;;;5075915;28;20020;-66
2021/03/21 07:10:19;;;;;;;2.58;0.90;;;15.90;52.30;;;;;;5049740;28;20128;-66
2021/03/21 07:13:09;;;;;;;3.95;1.00;;;15.90;52.30;;;;;;5076287;28;20456;-67
2021/03/21 07:16:21;;;;;;;2.78;0.93;;;15.90;52.30;;;;;;5056572;28;20036;-65
2021/03/21 07:19:01;;;;;;;2.30;1.00;;;15.90;52.30;;;;;;5056084;28;20025;-66
2021/03/21 07:22:04;;;;;;;1.10;0.60;;;15.90;52.20;;;;;;5056121;28;20028;-66
2021/03/21 07:24:45;;;;;;;1.70;0.80;;;15.90;52.30;;;;;;5054672;28;20353;-67
2021/03/21 07:27:43;;;;;;;1.90;0.77;;;15.90;52.20;;;;;;5072752;28;20472;-66
2021/03/21 07:30:16;;;;;;;2.60;0.90;;;15.90;52.20;;;;;;5072618;28;20040;-66
2021/03/21 07:33:12;;;;;;;1.83;0.90;;;15.90;52.10;;;;;;5074956;28;20357;-66
2021/03/21 07:36:12;;;;;;;3.60;0.80;;;15.90;52.20;;;;;;5068625;28;20056;-65
2021/03/21 07:38:38;;;;;;;1.98;0.60;;;15.90;52.20;;;;;;5077477;28;20020;-66
2021/03/21 07:42:02;;;;;;;1.20;0.55;;;15.90;52.20;;;;;;5075895;28;20532;-67
2021/03/21 07:45:06;;;;;;;1.45;0.60;;;15.90;52.10;;;;;;5051838;28;20028;-66
2021/03/21 07:47:50;;;;;;;1.90;0.75;;;15.80;52.10;;;;;;5068800;28;20090;-66
2021/03/21 07:50:23;;;;;;;3.90;0.90;;;15.90;52.10;;;;;;5075618;28;20025;-67
2021/03/21 07:53:32;;;;;;;2.38;0.75;;;15.90;52.20;;;;;;5074195;28;20481;-67
2021/03/21 07:56:36;;;;;;;;;;;15.90;52.10;;;;;;5068280;28;20064;-66
2021/03/21 07:59:07;;;;;;;3.40;0.82;;;15.80;52.10;;;;;;5053474;28;19954;-66
2021/03/21 08:01:32;;;;;;;3.15;0.70;;;15.80;52.10;;;;;;5048406;28;20052;-66
2021/03/21 08:04:07;;;;;;;4.53;1.05;;;15.80;52.10;;;;;;5059843;28;20458;-65
2021/03/21 08:06:42;;;;;;;3.60;0.80;;;15.80;52.10;;;;;;5075161;28;20024;-66
2021/03/21 08:09:22;;;;;;;3.50;1.10;;;15.80;52.10;;;;;;5075476;28;20375;-66
2021/03/21 08:12:18;;;;;;;4.28;0.85;;;15.80;52.10;;;;;;5075015;28;20048;-66
2021/03/21 08:14:53;;;;;;;3.75;1.13;;;15.80;52.10;;;;;;5074945;28;20472;-66
2021/03/21 08:17:24;;;;;;;5.05;0.98;;;15.80;52.00;;;;;;5074666;28;20036;-66
2021/03/21 08:19:58;;;;;;;4.22;1.27;;;15.80;51.90;;;;;;5074810;28;20036;-66
2021/03/21 08:22:27;;;;;;;4.95;1.13;;;15.80;52.00;;;;;;5074971;28;20097;-65
2021/03/21 08:25:11;;;;;;;5.75;1.30;;;15.80;52.20;;;;;;5073556;28;20409;-66
2021/03/21 08:27:36;;;;;;;5.10;1.50;;;15.80;52.60;;;;;;5069962;28;20025;-65
2021/03/21 08:30:06;;;;;;;5.65;1.48;;;15.80;52.30;;;;;;5074693;28;20036;-66
2021/03/21 08:32:34;;;;;;;4.05;1.30;;;15.80;52.40;;;;;;5074746;28;20479;-66
2021/03/21 08:35:21;;;;;;;4.50;1.02;;;15.80;52.30;;;;;;5074633;28;20028;-65
2021/03/21 08:37:49;;;;;;;4.68;1.00;;;15.80;52.40;;;;;;5074469;28;20114;-64
2021/03/21 08:40:35;;;;;;;5.68;1.30;;;15.70;52.40;;;;;;5083081;28;20105;-65
2021/03/21 08:43:21;;;;;;;6.45;1.60;;;15.70;52.30;;;;;;5056604;28;20499;-65
2021/03/21 08:45:56;;;;;;;5.97;1.50;;;15.70;52.40;;;;;;5073442;28;20357;-65
2021/03/21 08:48:35;;;;;;;7.05;1.50;;;15.80;52.50;;;;;;5073832;28;20023;-66
2021/03/21 08:51:03;;;;;;;10.40;1.80;;;15.80;52.50;;;;;;5073894;28;20028;-65
2021/03/21 08:53:38;;;;;;;7.70;1.77;;;15.80;52.40;;;;;;5072376;28;20093;-66
2021/03/21 08:56:29;;;;;;;7.50;1.42;;;15.70;52.20;;;;;;5073127;28;20093;-67
2021/03/21 08:59:23;;;;;;;7.10;1.52;;;15.70;52.30;;;;;;5070812;28;20021;-67
2021/03/21 09:02:01;;;;;;;6.55;1.60;;;15.70;52.30;;;;;;5053842;28;20131;-66
2021/03/21 09:04:27;;;;;;;8.48;1.52;;;15.80;52.20;;;;;;5062649;28;20056;-67
2021/03/21 09:06:53;;;;;;;7.55;1.63;;;15.70;52.00;;;;;;5072940;28;20020;-66
2021/03/21 09:09:37;;;;;;;5.63;1.40;;;15.70;52.60;;;;;;5072320;28;20035;-67
2021/03/21 09:12:22;;;;;;;6.75;1.40;;;15.80;52.10;;;;;;5073888;28;20044;-67
2021/03/21 09:15:11;;;;;;;6.30;2.00;;;15.70;52.10;;;;;;5073767;28;20472;-66
2021/03/21 09:17:37;;;;;;;6.43;1.63;;;15.70;52.10;;;;;;5072594;28;20052;-66
2021/03/21 09:20:04;;;;;;;7.68;1.73;;;15.70;51.90;;;;;;5073063;28;20029;-67
2021/03/21 09:22:35;;;;;;;6.93;1.90;;;15.80;52.00;;;;;;5071976;28;20017;-67
2021/03/21 09:25:15;;;;;;;5.63;1.52;;;15.70;52.00;;;;;;5072748;28;20573;-67
2021/03/21 09:27:43;;;;;;;8.10;2.20;;;15.70;52.00;;;;;;5077501;28;20025;-67
2021/03/21 09:30:12;;;;;;;8.18;1.60;;;15.70;52.40;;;;;;5070721;28;20058;-65
2021/03/21 09:32:38;;;;;;;17.40;2.75;;;15.70;52.30;;;;;;5072546;28;20055;-62
2021/03/21 09:35:33;;;;;;;14.68;2.90;;;15.80;52.30;;;;;;5073110;28;20411;-68
2021/03/21 09:38:13;;;;;;;9.13;2.40;;;15.80;52.40;;;;;;5072894;28;20529;-67
2021/03/21 09:40:42;;;;;;;11.68;2.35;;;15.80;52.70;;;;;;5071499;28;20090;-67
2021/03/21 09:43:16;;;;;;;14.07;2.50;;;15.80;52.60;;;;;;5072701;28;20108;-71
2021/03/21 09:45:44;;;;;;;15.63;5.22;;;15.80;52.60;;;;;;5075523;28;20483;-66
2021/03/21 09:48:19;;;;;;;16.38;4.63;;;15.90;52.70;;;;;;5075581;28;20053;-66
2021/03/21 09:50:58;;;;;;;12.70;3.42;;;15.90;52.50;;;;;;5077602;28;20090;-67
2021/03/21 09:53:48;;;;;;;10.82;2.75;;;16.00;52.30;;;;;;5072631;28;20051;-71
2021/03/21 09:56:28;;;;;;;28.23;3.58;;;16.00;52.30;;;;;;5073489;28;20043;-66
2021/03/21 09:59:07;;;;;;;19.98;4.35;;;16.10;52.30;;;;;;5071448;28;20120;-63
2021/03/21 10:01:59;;;;;;;26.17;4.45;;;16.20;52.20;;;;;;5069216;28;20041;-65
2021/03/21 10:04:54;;;;;;;16.73;3.55;;;16.20;52.20;;;;;;5072586;28;20027;-63
2021/03/21 10:07:34;;;;;;;16.85;3.13;;;16.30;52.10;;;;;;5080473;28;20517;-65
2021/03/21 10:10:02;;;;;;;18.65;4.13;;;16.40;52.20;;;;;;5080065;28;20075;-62
2021/03/21 10:12:28;;;;;;;19.27;3.25;;;16.40;51.70;;;;;;5072130;28;20013;-62
2021/03/21 10:15:07;;;;;;;19.92;3.67;;;16.50;52.00;;;;;;5071393;28;20027;-63
2021/03/21 10:17:36;;;;;;;22.65;4.15;;;16.50;51.50;;;;;;5071782;28;20111;-67
2021/03/21 10:20:03;;;;;;;16.95;4.35;;;16.60;51.70;;;;;;5075710;28;20024;-66
2021/03/21 10:22:28;;;;;;;24.73;7.22;;;16.60;51.50;;;;;;5074660;28;20024;-69
2021/03/21 10:24:57;;;;;;;37.08;14.60;;;16.70;51.70;;;;;;5070985;28;20107;-64
2021/03/21 10:27:40;;;;;;;55.80;17.98;;;16.80;52.10;;;;;;5072263;28;20089;-72
2021/03/21 10:30:15;;;;;;;34.97;11.88;;;16.90;52.50;;;;;;5073047;28;20028;-72
2021/03/21 10:33:05;;;;;;;36.78;11.27;;;17.10;52.50;;;;;;5071607;28;20158;-76
2021/03/21 10:35:31;;;;;;;34.33;11.93;;;17.20;52.30;;;;;;5049794;28;20055;-70
2021/03/21 10:37:59;;;;;;;36.13;11.88;;;17.30;51.70;;;;;;5072289;28;20467;-71
2021/03/21 10:40:25;;;;;;;31.30;10.18;;;17.30;51.80;;;;;;5073262;28;20395;-75
2021/03/21 10:42:55;;;;;;;31.77;9.98;;;17.50;51.80;;;;;;5072033;28;20024;-72
2021/03/21 10:45:35;;;;;;;31.48;9.65;;;17.60;51.20;;;;;;5072339;28;20146;-70
2021/03/21 10:48:15;;;;;;;27.58;9.35;;;17.70;51.30;;;;;;5072260;28;20075;-71
2021/03/21 10:50:54;;;;;;;27.50;8.77;;;17.70;51.10;;;;;;5053708;28;20096;-73
2021/03/21 10:53:30;;;;;;;24.70;8.52;;;17.80;51.20;;;;;;5071917;28;20025;-67
2021/03/21 10:56:05;;;;;;;32.42;8.68;;;18.00;51.10;;;;;;5068666;28;20487;-68
2021/03/21 10:58:33;;;;;;;23.02;7.72;;;18.20;50.60;;;;;;5070240;28;20468;-64
2021/03/21 11:01:20;;;;;;;21.15;6.90;;;18.40;50.10;;;;;;5072327;28;20048;-65
2021/03/21 11:03:58;;;;;;;24.73;7.03;;;18.50;49.60;;;;;;5067422;28;20115;-69
2021/03/21 11:06:31;;;;;;;23.75;6.97;;;18.60;49.30;;;;;;5071359;28;20066;-67
2021/03/21 11:09:09;;;;;;;22.20;6.28;;;18.60;49.30;;;;;;5072340;28;20108;-65
2021/03/21 11:11:38;;;;;;;21.85;6.38;;;18.60;49.30;;;;;;5076394;28;20020;-68
2021/03/21 11:14:17;;;;;;;20.30;5.75;;;18.60;49.20;;;;;;5071610;28;20029;-67
2021/03/21 11:17:09;;;;;;;19.00;5.07;;;18.60;49.00;;;;;;5069811;28;20475;-69
2021/03/21 11:19:42;;;;;;;19.63;5.43;;;18.60;49.00;;;;;;5054778;28;20379;-69
2021/03/21 11:22:24;;;;;;;15.48;4.97;;;18.60;48.90;;;;;;5071507;28;20356;-72
2021/03/21 11:24:50;;;;;;;18.23;4.68;;;18.70;48.70;;;;;;5071352;28;20037;-70
2021/03/21 11:27:25;;;;;;;14.13;4.85;;;18.70;48.60;;;;;;5066325;28;20028;-68
2021/03/21 11:29:51;;;;;;;14.75;4.90;;;18.80;48.60;;;;;;5071536;28;20440;-68
2021/03/21 11:32:25;;;;;;;13.68;4.20;;;18.80;48.70;;;;;;5073377;28;20063;-70
2021/03/21 11:35:04;;;;;;;15.10;4.38;;;18.80;48.60;;;;;;5073528;28;20044;-69
2021/03/21 11:37:35;;;;;;;18.83;4.72;;;18.80;48.10;;;;;;5075191;28;20486;-66
2021/03/21 11:40:06;;;;;;;15.32;4.18;;;19.00;48.10;;;;;;5075128;28;20047;-66
2021/03/21 11:42:36;;;;;;;18.50;4.95;;;19.10;47.60;;;;;;5073830;28;20025;-65
2021/03/21 11:45:17;;;;;;;16.83;6.32;;;19.00;46.80;;;;;;5074417;28;20119;-63
2021/03/21 11:47:51;;;;;;;18.80;7.40;;;18.90;47.70;;;;;;5073677;28;20037;-63
2021/03/21 11:50:27;;;;;;;21.52;8.30;;;19.00;47.40;;;;;;5075010;28;20086;-63
2021/03/21 11:52:54;;;;;;;15.80;6.53;;;19.10;47.10;;;;;;5072041;28;20020;-63
2021/03/21 11:55:25;;;;;;;16.10;6.35;;;18.90;47.30;;;;;;5074497;28;20120;-63
2021/03/21 11:58:19;;;;;;;19.33;6.13;;;18.80;47.70;;;;;;5075080;28;20023;-64
2021/03/21 12:00:56;;;;;;;23.42;6.28;;;18.90;47.90;;;;;;5067420;28;20025;-63
2021/03/21 12:03:23;;;;;;;22.42;5.57;;;18.80;47.90;;;;;;5071600;28;20024;-63
2021/03/21 12:06:03;;;;;;;17.25;5.40;;;18.80;47.80;;;;;;5074418;28;20013;-64
2021/03/21 12:08:39;;;;;;;14.57;5.25;;;18.80;47.80;;;;;;5086178;28;20028;-63
2021/03/21 12:11:36;;;;;;;17.88;5.25;;;18.90;47.50;;;;;;5071652;28;20070;-64
2021/03/21 12:14:24;;;;;;;15.63;4.75;;;18.80;47.50;;;;;;5086799;28;20042;-63
2021/03/21 12:16:51;;;;;;;14.65;4.50;;;19.20;47.20;;;;;;5093613;28;20368;-64
2021/03/21 12:19:25;;;;;;;15.80;4.57;;;19.30;46.40;;;;;;5092322;28;20507;-63
2021/03/21 12:21:57;;;;;;;12.98;3.95;;;19.20;46.70;;;;;;5093461;28;20267;-64
2021/03/21 12:24:25;;;;;;;12.60;4.07;;;19.00;46.90;;;;;;5092007;28;20027;-64
2021/03/21 12:26:56;;;;;;;15.95;3.63;;;19.00;47.00;;;;;;5072480;28;20077;-63
2021/03/21 12:29:22;;;;;;;;;;;19.50;46.10;;;;;;5070715;28;20027;-64
2021/03/21 12:31:50;;;;;;;17.33;4.60;;;19.40;46.10;;;;;;5071434;28;19904;-63
2021/03/21 12:34:33;;;;;;;13.30;3.75;;;19.20;46.90;;;;;;5072900;28;20028;-64
2021/03/21 12:37:08;;;;;;;13.60;3.70;;;19.00;47.50;;;;;;5053082;28;20025;-64
2021/03/21 12:39:41;;;;;;;16.00;4.35;;;18.90;48.00;;;;;;5061221;28;20438;-64
2021/03/21 12:42:25;;;;;;;12.60;4.10;;;19.20;47.40;;;;;;5071753;28;20103;-64
2021/03/21 12:45:22;;;;;;;10.73;3.53;;;19.10;47.00;;;;;;5072626;28;20083;-66
2021/03/21 12:47:53;;;;;;;13.77;3.90;;;19.20;47.00;;;;;;5060734;28;20041;-65
2021/03/21 12:50:29;;;;;;;11.93;4.15;;;19.10;47.00;;;;;;5076975;28;20046;-64
2021/03/21 12:52:56;;;;;;;11.77;3.58;;;19.10;47.10;;;;;;5078134;28;20451;-64
2021/03/21 12:55:22;;;;;;;14.07;4.13;;;19.20;46.80;;;;;;5074048;28;20025;-66
2021/03/21 12:57:48;;;;;;;13.27;3.60;;;19.20;47.10;;;;;;5073625;28;20021;-65
2021/03/21 13:00:24;;;;;;;13.68;3.75;;;19.20;46.90;;;;;;5074051;28;20490;-66
2021/03/21 13:02:52;;;;;;;12.77;3.97;;;19.20;46.50;;;;;;5074646;28;20040;-64
2021/03/21 13:05:32;;;;;;;14.80;4.38;;;19.20;46.70;;;;;;5074252;28;20107;-64
2021/03/21 13:07:58;;;;;;;13.85;4.97;;;19.20;46.60;;;;;;5072853;28;20024;-64
2021/03/21 13:10:26;;;;;;;13.82;5.38;;;19.20;46.60;;;;;;5071636;28;20357;-64
2021/03/21 13:12:52;;;;;;;14.82;5.38;;;19.20;46.30;;;;;;5071804;28;20032;-64
2021/03/21 13:15:19;;;;;;;15.00;5.03;;;19.10;46.40;;;;;;5088248;28;20445;-64
2021/03/21 13:17:45;;;;;;;13.85;4.38;;;19.20;46.30;;;;;;5072354;28;20479;-64
2021/03/21 13:20:16;;;;;;;11.90;4.13;;;19.20;46.20;;;;;;5072294;28;20078;-64
2021/03/21 13:22:42;;;;;;;13.45;4.82;;;19.30;46.40;;;;;;5072296;28;20351;-64
2021/03/21 13:25:08;;;;;;;12.23;4.30;;;19.20;46.60;;;;;;5070724;28;20024;-64
2021/03/21 13:27:34;;;;;;;11.73;3.90;;;19.20;46.90;;;;;;5072067;28;20487;-64
2021/03/21 13:30:00;;;;;;;13.73;3.70;;;19.10;47.20;;;;;;5089548;28;20058;-64
2021/03/21 13:32:26;;;;;;;11.82;4.07;;;19.00;47.30;;;;;;5092443;28;20030;-64
2021/03/21 13:34:53;;;;;;;11.90;3.53;;;19.00;47.40;;;;;;5090984;28;20387;-64
2021/03/21 13:37:20;;;;;;;15.18;3.88;;;19.00;47.40;;;;;;5092181;28;20149;-65